Time;durP1;ratioP1;P1;durP2;ratioP2;P2;SDS_P1;SDS_P2;PMS_P1;PMS_P2;Temp;Humidity;BMP_temperature;BMP_pressure;BME280_temperature;BME280_humidity;BME280_pressure;Samples;Min_cycle;Max_cycle;Signal;HPM_P1;HPM_P2
2021/03/31 00:01:14;;;;;;;7.15;3.33;;;16.20;55.80;;;;;;5114889;28;20043;-78
2021/03/31 00:03:39;;;;;;;9.65;2.95;;;16.30;55.80;;;;;;5113796;28;20053;-78
2021/03/31 00:06:05;;;;;;;9.00;3.17;;;16.20;56.30;;;;;;5115252;28;20071;-77
2021/03/31 00:08:31;;;;;;;9.18;2.92;;;16.20;55.70;;;;;;5113854;28;20028;-77
2021/03/31 00:10:59;;;;;;;10.32;3.03;;;16.20;55.80;;;;;;5113684;28;20080;-78
2021/03/31 00:13:25;;;;;;;9.15;3.17;;;16.20;56.00;;;;;;5114138;28;20122;-78
2021/03/31 00:15:53;;;;;;;7.57;2.80;;;16.20;56.00;;;;;;5114720;28;20039;-78
2021/03/31 00:18:21;;;;;;;9.30;2.90;;;16.20;55.90;;;;;;5113442;28;20031;-78
2021/03/31 00:20:47;;;;;;;5.88;3.28;;;16.10;55.80;;;;;;5113094;28;20039;-78
2021/03/31 00:23:15;;;;;;;7.80;3.05;;;16.20;55.80;;;;;;5113364;28;20564;-78
2021/03/31 00:25:41;;;;;;;8.10;2.85;;;16.10;55.60;;;;;;5113643;28;20495;-78
2021/03/31 00:28:10;;;;;;;8.80;2.97;;;16.10;55.80;;;;;;5113975;28;20036;-78
2021/03/31 00:30:37;;;;;;;10.77;2.90;;;16.10;55.90;;;;;;5113894;28;20035;-78
2021/03/31 00:33:04;;;;;;;8.73;2.90;;;16.10;55.90;;;;;;5114974;28;20480;-78
2021/03/31 00:35:31;;;;;;;12.63;3.17;;;16.20;55.90;;;;;;5115058;28;20073;-77
2021/03/31 00:37:57;;;;;;;7.53;3.20;;;16.10;56.00;;;;;;5113769;28;20059;-78
2021/03/31 00:40:29;;;;;;;7.03;3.10;;;16.20;56.10;;;;;;5114726;28;20040;-78
2021/03/31 00:42:54;;;;;;;11.40;3.67;;;16.20;56.00;;;;;;5115052;28;20119;-78
2021/03/31 00:45:20;;;;;;;12.95;3.17;;;16.20;56.00;;;;;;5113996;28;20070;-78
2021/03/31 00:47:46;;;;;;;13.27;3.30;;;16.20;55.80;;;;;;5113796;28;20507;-78
2021/03/31 00:50:15;;;;;;;9.65;2.88;;;16.20;55.90;;;;;;5113837;28;20062;-78
2021/03/31 00:52:42;;;;;;;6.97;3.00;;;16.10;56.10;;;;;;5114688;28;20043;-78
2021/03/31 00:55:10;;;;;;;13.60;3.05;;;16.10;56.10;;;;;;5113181;28;20039;-77
2021/03/31 00:57:37;;;;;;;11.02;2.95;;;16.00;56.40;;;;;;5113652;28;20059;-78
2021/03/31 01:00:05;;;;;;;9.18;3.50;;;16.00;56.50;;;;;;5113108;28;20032;-78
2021/03/31 01:02:31;;;;;;;9.50;2.90;;;16.00;56.50;;;;;;5113930;28;20035;-78
2021/03/31 01:04:57;;;;;;;12.07;3.40;;;16.00;56.50;;;;;;5113611;28;20524;-78
2021/03/31 01:07:23;;;;;;;6.72;3.13;;;16.00;56.50;;;;;;5113675;28;20476;-78
2021/03/31 01:09:53;;;;;;;12.70;3.55;;;16.00;56.80;;;;;;5113139;28;20050;-78
2021/03/31 01:12:40;;;;;;;16.67;3.10;;;16.00;56.90;;;;;;5113597;28;20036;-78
2021/03/31 01:15:32;;;;;;;11.48;3.67;;;16.00;57.00;;;;;;5113200;28;20040;-78
2021/03/31 01:18:33;;;;;;;7.45;2.88;;;16.00;57.20;;;;;;5113287;28;20036;-79
2021/03/31 01:21:31;;;;;;;9.57;3.13;;;16.00;57.10;;;;;;5070398;28;20051;-78
2021/03/31 01:24:31;;;;;;;9.93;3.13;;;16.00;57.30;;;;;;5113462;28;20079;-77
2021/03/31 01:27:20;;;;;;;10.90;3.53;;;15.90;57.40;;;;;;5113347;28;20118;-77
2021/03/31 01:30:12;;;;;;;9.98;3.30;;;15.90;57.60;;;;;;5115801;28;20035;-77
2021/03/31 01:33:12;;;;;;;7.88;3.58;;;15.90;57.90;;;;;;5116825;28;20040;-77
2021/03/31 01:35:40;;;;;;;8.05;3.60;;;15.80;58.00;;;;;;5109550;28;20050;-77
2021/03/31 01:38:10;;;;;;;11.90;3.50;;;15.80;58.40;;;;;;5116954;28;20034;-78
2021/03/31 01:40:41;;;;;;;10.00;3.65;;;15.80;58.70;;;;;;5117863;28;20031;-77
2021/03/31 01:43:12;;;;;;;8.93;4.05;;;15.80;59.00;;;;;;5116144;28;20395;-77
2021/03/31 01:45:39;;;;;;;10.57;3.42;;;15.70;59.30;;;;;;5116441;28;20035;-77
2021/03/31 01:48:28;;;;;;;14.30;3.60;;;15.70;59.60;;;;;;5116821;28;20023;-78
2021/03/31 01:51:13;;;;;;;15.27;4.03;;;15.70;60.00;;;;;;5117786;28;20032;-77
2021/03/31 01:53:39;;;;;;;10.88;3.63;;;15.70;60.00;;;;;;5116054;28;20044;-78
2021/03/31 01:56:11;;;;;;;10.63;3.58;;;15.70;60.20;;;;;;5117578;28;20096;-78
2021/03/31 01:58:39;;;;;;;12.23;3.42;;;15.70;60.00;;;;;;5118356;28;20040;-77
2021/03/31 02:01:07;;;;;;;9.57;3.10;;;15.80;59.50;;;;;;5117546;28;20044;-78
2021/03/31 02:03:35;;;;;;;11.27;3.13;;;15.90;59.20;;;;;;5117471;28;20480;-78
2021/03/31 02:06:02;;;;;;;9.45;3.10;;;16.00;58.90;;;;;;5116352;28;20035;-78
2021/03/31 02:08:29;;;;;;;11.63;3.25;;;16.00;58.90;;;;;;5116589;28;20100;-79
2021/03/31 02:10:56;;;;;;;8.95;2.78;;;16.00;59.10;;;;;;5117039;28;20040;-78
2021/03/31 02:13:22;;;;;;;11.02;3.30;;;16.10;59.00;;;;;;5116309;28;20047;-78
2021/03/31 02:15:50;;;;;;;9.70;3.28;;;16.10;59.00;;;;;;5117581;28;20507;-78
2021/03/31 02:18:18;;;;;;;10.65;3.90;;;16.00;59.10;;;;;;5116163;28;20085;-78
2021/03/31 02:20:51;;;;;;;8.35;3.38;;;16.00;59.20;;;;;;5116078;28;20085;-78
2021/03/31 02:23:18;;;;;;;16.60;3.95;;;16.00;59.40;;;;;;5116847;28;20031;-77
2021/03/31 02:25:47;;;;;;;10.10;3.30;;;16.00;59.70;;;;;;5115605;28;20460;-78
2021/03/31 02:28:13;;;;;;;10.55;3.40;;;15.90;59.60;;;;;;5116808;28;20031;-78
2021/03/31 02:30:39;;;;;;;8.68;3.10;;;15.90;60.00;;;;;;5116799;28;20044;-78
2021/03/31 02:33:08;;;;;;;14.73;3.22;;;15.90;59.80;;;;;;5116599;28;20044;-78
2021/03/31 02:35:35;;;;;;;9.45;3.20;;;15.90;60.10;;;;;;5115543;28;20046;-78
2021/03/31 02:38:05;;;;;;;15.30;3.50;;;15.80;60.10;;;;;;5116326;28;20104;-78
2021/03/31 02:40:32;;;;;;;13.02;3.78;;;15.80;60.20;;;;;;5116427;28;20039;-78
2021/03/31 02:43:00;;;;;;;6.90;3.25;;;15.70;60.20;;;;;;5116325;28;20042;-77
2021/03/31 02:45:29;;;;;;;11.75;3.65;;;15.70;60.30;;;;;;5116868;28;20603;-77
2021/03/31 02:47:56;;;;;;;12.15;3.90;;;15.70;60.40;;;;;;5116382;28;20042;-77
2021/03/31 02:50:25;;;;;;;12.65;3.67;;;15.70;60.60;;;;;;5116422;28;20400;-78
2021/03/31 02:52:52;;;;;;;12.18;3.53;;;15.60;60.80;;;;;;5115027;28;20038;-78
2021/03/31 02:55:20;;;;;;;12.95;3.28;;;15.60;61.00;;;;;;5115959;28;20426;-78
2021/03/31 02:57:47;;;;;;;12.13;3.50;;;15.60;61.20;;;;;;5116255;28;20116;-78
2021/03/31 03:00:14;;;;;;;11.50;3.38;;;15.60;61.40;;;;;;5115136;28;20039;-78
2021/03/31 03:02:42;;;;;;;7.20;3.10;;;15.60;61.40;;;;;;5116059;28;20039;-78
2021/03/31 03:05:10;;;;;;;17.55;4.25;;;15.50;61.60;;;;;;5115091;28;20597;-78
2021/03/31 03:07:37;;;;;;;10.20;4.07;;;15.50;61.80;;;;;;5116265;28;20481;-78
2021/03/31 03:10:05;;;;;;;7.90;3.20;;;15.50;61.70;;;;;;5115876;28;20046;-78
2021/03/31 03:12:32;;;;;;;13.05;3.95;;;15.40;61.90;;;;;;5116320;28;20039;-78
2021/03/31 03:15:00;;;;;;;9.68;4.15;;;15.40;62.00;;;;;;5114916;28;20038;-78
2021/03/31 03:17:26;;;;;;;10.13;3.67;;;15.40;62.20;;;;;;5114668;28;20036;-78
2021/03/31 03:19:52;;;;;;;7.40;3.95;;;15.30;62.30;;;;;;5115866;28;20046;-78
2021/03/31 03:22:19;;;;;;;13.23;3.70;;;15.30;62.30;;;;;;5115521;28;20069;-78
2021/03/31 03:24:47;;;;;;;11.88;4.22;;;15.20;62.40;;;;;;5114404;28;20039;-78
2021/03/31 03:27:15;;;;;;;10.70;4.07;;;15.20;62.40;;;;;;5114614;28;20039;-78
2021/03/31 03:30:00;;;;;;;13.05;3.65;;;15.20;62.30;;;;;;5114228;28;20054;-78
2021/03/31 03:32:26;;;;;;;11.98;3.22;;;15.10;62.30;;;;;;5114818;28;20039;-78
2021/03/31 03:34:54;;;;;;;14.60;3.38;;;15.10;62.50;;;;;;5116035;28;20089;-77
2021/03/31 03:37:20;;;;;;;10.55;3.60;;;15.10;62.60;;;;;;5114348;28;20051;-78
2021/03/31 03:39:47;;;;;;;7.13;3.40;;;15.00;62.80;;;;;;5115370;28;20039;-78
2021/03/31 03:42:13;;;;;;;7.93;3.88;;;15.00;63.00;;;;;;5113921;28;20566;-78
2021/03/31 03:44:40;;;;;;;12.57;3.78;;;15.00;63.10;;;;;;5114208;28;20040;-78
2021/03/31 03:47:07;;;;;;;13.02;4.07;;;14.90;63.30;;;;;;5114260;28;20077;-78
2021/03/31 03:49:37;;;;;;;10.40;3.70;;;14.90;63.60;;;;;;5115648;28;20043;-78
2021/03/31 03:52:06;;;;;;;15.13;4.18;;;14.80;63.50;;;;;;5115366;28;20047;-78
2021/03/31 03:54:32;;;;;;;8.27;3.55;;;14.80;63.70;;;;;;5113988;28;20040;-78
2021/03/31 03:56:58;;;;;;;12.63;4.47;;;14.80;63.70;;;;;;5113808;28;20032;-78
2021/03/31 03:59:26;;;;;;;9.30;3.80;;;14.80;63.80;;;;;;5115136;28;20038;-78
2021/03/31 04:01:53;;;;;;;7.10;3.30;;;14.80;63.90;;;;;;5115487;28;20028;-78
2021/03/31 04:04:20;;;;;;;11.48;4.20;;;14.70;64.00;;;;;;5114834;28;20101;-78
2021/03/31 04:06:46;;;;;;;16.15;4.50;;;14.70;64.30;;;;;;5115574;28;20108;-78
2021/03/31 04:09:13;;;;;;;16.60;4.07;;;14.60;64.50;;;;;;5115007;28;20110;-78
2021/03/31 04:11:42;;;;;;;10.65;3.60;;;14.60;64.80;;;;;;5114907;28;20487;-78
2021/03/31 04:14:09;;;;;;;11.52;4.03;;;14.50;65.10;;;;;;5115141;28;20472;-78
2021/03/31 04:16:36;;;;;;;13.13;4.43;;;14.40;65.30;;;;;;5114148;28;20027;-78
2021/03/31 04:19:07;;;;;;;9.85;4.32;;;14.40;65.60;;;;;;5113453;28;20043;-78
2021/03/31 04:21:34;;;;;;;11.35;4.22;;;14.30;65.60;;;;;;5114911;28;20027;-77
2021/03/31 04:24:01;;;;;;;12.43;4.10;;;14.30;65.80;;;;;;5113496;28;20515;-77
2021/03/31 04:26:30;;;;;;;9.05;4.18;;;14.20;65.90;;;;;;5114973;28;20039;-77
2021/03/31 04:28:57;;;;;;;16.35;3.95;;;14.20;66.20;;;;;;5113692;28;20468;-76
2021/03/31 04:31:26;;;;;;;13.25;4.25;;;14.10;66.20;;;;;;5113519;28;20039;-77
2021/03/31 04:33:52;;;;;;;20.23;4.65;;;14.10;66.30;;;;;;5113931;28;20494;-77
2021/03/31 04:36:18;;;;;;;12.98;4.07;;;14.00;66.50;;;;;;5113601;28;20564;-77
2021/03/31 04:38:49;;;;;;;12.80;4.40;;;14.10;66.20;;;;;;5112873;28;20041;-78
2021/03/31 04:41:16;;;;;;;19.10;4.53;;;14.00;66.20;;;;;;5113422;28;20042;-78
2021/03/31 04:43:43;;;;;;;21.58;5.25;;;14.00;66.10;;;;;;5113160;28;20085;-78
2021/03/31 04:46:09;;;;;;;15.02;4.25;;;14.00;65.80;;;;;;5113477;28;20035;-78
2021/03/31 04:48:36;;;;;;;20.77;4.25;;;13.90;65.90;;;;;;5113487;28;20549;-78
2021/03/31 04:51:03;;;;;;;12.00;3.53;;;14.00;66.10;;;;;;5113360;28;20069;-78
2021/03/31 04:53:29;;;;;;;14.07;3.88;;;13.90;65.70;;;;;;5113487;28;20381;-78
2021/03/31 04:55:55;;;;;;;16.20;4.10;;;13.90;65.80;;;;;;5114338;28;20118;-78
2021/03/31 04:58:21;;;;;;;13.50;3.90;;;13.90;65.50;;;;;;5113433;28;20098;-78
2021/03/31 05:00:47;;;;;;;12.30;3.53;;;13.80;65.50;;;;;;5114455;28;20081;-77
2021/03/31 05:03:13;;;;;;;16.58;4.07;;;13.80;65.30;;;;;;5113289;28;20071;-78
2021/03/31 05:05:39;;;;;;;10.35;3.67;;;13.80;65.20;;;;;;5116931;28;20070;-77
2021/03/31 05:08:06;;;;;;;13.25;3.97;;;13.80;65.20;;;;;;5118328;28;20028;-78
2021/03/31 05:10:33;;;;;;;17.27;4.22;;;13.80;64.90;;;;;;5116684;28;20519;-77
2021/03/31 05:12:58;;;;;;;16.55;3.95;;;13.80;65.10;;;;;;5117049;28;20074;-78
2021/03/31 05:15:24;;;;;;;11.95;3.47;;;13.70;64.90;;;;;;5117036;28;20418;-78
2021/03/31 05:17:50;;;;;;;13.65;3.70;;;13.70;64.60;;;;;;5117961;28;20040;-78
2021/03/31 05:20:16;;;;;;;12.02;4.10;;;13.70;64.60;;;;;;5116391;28;20066;-78
2021/03/31 05:22:43;;;;;;;10.65;4.18;;;13.70;64.30;;;;;;5116418;28;20138;-78
2021/03/31 05:25:09;;;;;;;14.90;4.57;;;13.70;64.00;;;;;;5118046;28;20561;-78
2021/03/31 05:27:36;;;;;;;15.98;3.67;;;13.70;63.80;;;;;;5116640;28;20039;-78
2021/03/31 05:30:11;;;;;;;19.13;4.03;;;13.60;63.40;;;;;;5117719;28;20484;-78
2021/03/31 05:32:38;;;;;;;15.65;3.45;;;13.60;63.50;;;;;;5116736;28;20050;-81
2021/03/31 05:35:05;;;;;;;13.95;3.55;;;13.60;63.20;;;;;;5119138;28;20046;-78
2021/03/31 05:37:31;;;;;;;14.77;3.72;;;13.60;63.20;;;;;;5117212;28;20035;-78
2021/03/31 05:39:57;;;;;;;9.68;3.78;;;13.60;62.90;;;;;;5102138;28;20519;-77
2021/03/31 05:42:23;;;;;;;11.95;3.60;;;13.60;62.70;;;;;;5083092;28;20050;-77
2021/03/31 05:44:50;;;;;;;23.77;4.13;;;13.60;62.60;;;;;;5080097;28;20047;-78
2021/03/31 05:47:36;;;;;;;14.65;4.05;;;13.60;62.40;;;;;;5084896;28;20036;-78
2021/03/31 05:50:13;;;;;;;13.95;3.63;;;13.60;62.40;;;;;;5080773;28;20028;-80
2021/03/31 05:52:40;;;;;;;12.50;3.20;;;13.70;62.20;;;;;;5075218;28;20456;-79
2021/03/31 05:55:08;;;;;;;10.45;3.63;;;13.60;61.90;;;;;;5083535;28;20048;-78
2021/03/31 05:57:36;;;;;;;22.42;4.07;;;13.70;61.70;;;;;;5075674;28;20127;-78
2021/03/31 06:00:08;;;;;;;13.18;3.83;;;13.70;61.60;;;;;;5078066;28;20040;-79
2021/03/31 06:02:35;;;;;;;14.75;3.60;;;13.70;61.50;;;;;;5076796;28;20044;-78
2021/03/31 06:05:01;;;;;;;14.50;3.70;;;13.70;61.10;;;;;;5075412;28;20055;-78
2021/03/31 06:07:27;;;;;;;12.23;3.92;;;13.70;61.10;;;;;;5075525;28;20124;-78
2021/03/31 06:10:15;;;;;;;13.98;3.47;;;13.70;60.80;;;;;;5076459;28;20064;-78
2021/03/31 06:12:43;;;;;;;10.23;3.70;;;13.80;60.70;;;;;;5075421;28;20063;-80
2021/03/31 06:15:14;;;;;;;16.98;3.58;;;13.80;60.40;;;;;;5074641;28;20040;-82
2021/03/31 06:18:19;;;;;;;14.93;4.18;;;13.80;60.40;;;;;;5074828;28;20148;-79
2021/03/31 06:23:52;;;;;;;18.58;4.28;;;13.80;60.20;;;;;;5075909;28;20178;-78
2021/03/31 06:26:26;;;;;;;10.88;3.50;;;13.90;60.10;;;;;;5074514;28;20043;-79
2021/03/31 06:29:00;;;;;;;13.83;3.43;;;13.90;59.80;;;;;;5076343;28;20040;-79
2021/03/31 06:31:34;;;;;;;11.90;4.18;;;13.90;59.60;;;;;;5074688;28;20040;-79
2021/03/31 06:34:15;;;;;;;16.13;4.20;;;14.00;59.70;;;;;;5074551;28;20033;-78
2021/03/31 06:36:45;;;;;;;10.98;3.47;;;14.00;59.40;;;;;;5075174;28;20499;-79
2021/03/31 06:39:31;;;;;;;19.42;3.65;;;14.00;59.30;;;;;;5074856;28;20040;-79
2021/03/31 06:42:10;;;;;;;20.08;3.53;;;14.10;59.40;;;;;;5074614;28;20040;-78
2021/03/31 06:47:44;;;;;;;12.63;4.03;;;14.20;59.00;;;;;;5075601;28;20059;-79
2021/03/31 06:50:12;;;;;;;13.15;3.05;;;14.20;58.60;;;;;;5074319;28;20048;-78
2021/03/31 06:53:11;;;;;;;16.23;3.58;;;14.30;58.10;;;;;;5075567;28;20040;-78
2021/03/31 06:55:36;;;;;;;12.68;3.58;;;14.30;58.00;;;;;;5052618;28;20051;-78
2021/03/31 06:58:07;;;;;;;14.48;3.70;;;14.40;57.80;;;;;;5074340;28;20032;-78
2021/03/31 07:00:35;;;;;;;13.35;3.60;;;14.40;57.90;;;;;;5075446;28;20101;-79
2021/03/31 07:03:07;;;;;;;12.25;4.05;;;14.50;57.80;;;;;;5074425;28;20048;-78
2021/03/31 07:05:37;;;;;;;12.57;3.30;;;14.50;57.80;;;;;;5075406;28;20052;-79
2021/03/31 07:08:08;;;;;;;10.60;3.47;;;14.50;57.50;;;;;;5074321;28;20481;-78
2021/03/31 07:10:49;;;;;;;11.75;3.60;;;14.50;57.50;;;;;;5073724;28;20042;-78
2021/03/31 07:13:35;;;;;;;14.52;4.53;;;14.60;57.80;;;;;;5073904;28;20078;-78
2021/03/31 07:16:04;;;;;;;16.27;4.03;;;14.70;57.40;;;;;;5057120;28;20044;-79
2021/03/31 07:18:32;;;;;;;13.82;4.15;;;14.80;56.90;;;;;;5074030;28;20036;-79
2021/03/31 07:20:59;;;;;;;13.25;3.83;;;14.80;57.20;;;;;;5073685;28;20051;-79
2021/03/31 07:23:26;;;;;;;12.43;3.92;;;14.80;57.00;;;;;;5073603;28;20048;-79
2021/03/31 07:25:53;;;;;;;14.35;4.25;;;14.90;56.90;;;;;;5073752;28;20481;-79
2021/03/31 07:28:40;;;;;;;12.35;3.70;;;15.00;57.10;;;;;;5072779;28;20036;-79
2021/03/31 07:31:09;;;;;;;24.75;4.10;;;15.00;56.20;;;;;;5073522;28;20036;-81
2021/03/31 07:33:42;;;;;;;15.85;3.67;;;15.00;56.20;;;;;;5073809;28;20489;-80
2021/03/31 07:36:12;;;;;;;13.70;3.60;;;15.10;55.90;;;;;;5074861;28;20086;-80
2021/03/31 07:38:39;;;;;;;10.68;3.38;;;15.20;55.90;;;;;;5073137;28;20032;-80
2021/03/31 07:41:07;;;;;;;12.95;4.35;;;15.10;55.70;;;;;;5075730;28;20512;-79
2021/03/31 07:43:37;;;;;;;24.08;4.00;;;15.20;55.90;;;;;;5073481;28;20038;-80
2021/03/31 07:46:03;;;;;;;15.75;3.72;;;15.20;55.60;;;;;;5072982;28;20067;-79
2021/03/31 07:48:30;;;;;;;10.45;3.72;;;15.40;55.20;;;;;;5073600;28;20029;-80
2021/03/31 07:50:56;;;;;;;13.38;3.50;;;15.40;54.60;;;;;;5074445;28;20040;-80
2021/03/31 07:53:23;;;;;;;17.52;3.80;;;15.50;54.50;;;;;;5072960;28;20519;-80
2021/03/31 07:55:51;;;;;;;11.52;3.13;;;15.50;54.50;;;;;;5073135;28;20084;-80
2021/03/31 07:58:18;;;;;;;8.98;3.05;;;15.60;54.10;;;;;;5073362;28;20044;-80
2021/03/31 08:00:56;;;;;;;27.48;10.82;;;15.70;54.60;;;;;;5074765;28;20044;-80
2021/03/31 08:03:25;;;;;;;11.10;3.20;;;15.70;54.00;;;;;;5073052;28;20048;-80
2021/03/31 08:06:14;;;;;;;16.65;3.03;;;15.80;53.70;;;;;;5073394;28;20568;-80
2021/03/31 08:08:46;;;;;;;12.43;3.05;;;15.90;53.40;;;;;;5074327;28;20111;-80
2021/03/31 08:11:13;;;;;;;13.07;3.35;;;16.00;53.50;;;;;;5072886;28;20073;-80
2021/03/31 08:13:41;;;;;;;18.52;3.90;;;16.00;53.30;;;;;;5073287;28;20044;-81
2021/03/31 08:16:40;;;;;;;16.73;3.10;;;16.10;53.00;;;;;;5074206;28;20050;-80
2021/03/31 08:19:33;;;;;;;10.20;3.53;;;16.30;52.70;;;;;;5061490;28;20040;-80
2021/03/31 08:22:21;;;;;;;15.02;3.17;;;16.40;52.40;;;;;;5072620;28;20052;-80
2021/03/31 08:24:52;;;;;;;14.13;3.90;;;16.60;52.00;;;;;;5073092;28;20063;-80
2021/03/31 08:27:19;;;;;;;10.07;3.60;;;16.60;51.70;;;;;;5073107;28;20078;-81
2021/03/31 08:29:48;;;;;;;12.80;3.70;;;16.60;52.10;;;;;;5074578;28;20036;-80
2021/03/31 08:32:15;;;;;;;9.20;3.03;;;16.60;52.00;;;;;;5073374;28;20043;-81
2021/03/31 08:34:42;;;;;;;13.25;3.60;;;16.70;51.80;;;;;;5074435;28;20036;-80
2021/03/31 08:37:24;;;;;;;14.10;3.42;;;16.80;51.30;;;;;;5073312;28;20036;-81
2021/03/31 08:39:51;;;;;;;19.27;4.03;;;17.00;51.40;;;;;;5077749;28;20048;-81
2021/03/31 08:42:17;;;;;;;18.02;3.95;;;17.10;51.70;;;;;;5078341;28;20094;-80
2021/03/31 08:44:49;;;;;;;16.38;4.07;;;17.20;51.10;;;;;;5077337;28;20037;-80
2021/03/31 08:47:21;;;;;;;11.95;3.20;;;17.20;51.10;;;;;;5077408;28;20060;-81
2021/03/31 08:49:57;;;;;;;12.98;3.30;;;17.30;50.60;;;;;;5076901;28;20036;-81
2021/03/31 08:52:25;;;;;;;18.88;3.10;;;17.40;50.70;;;;;;5076685;28;20036;-81
2021/03/31 08:54:54;;;;;;;13.73;3.33;;;17.60;50.60;;;;;;5077689;28;20068;-81
2021/03/31 08:57:30;;;;;;;14.23;2.90;;;17.80;49.80;;;;;;5077318;28;20040;-80
2021/03/31 09:00:01;;;;;;;8.43;2.95;;;17.90;49.70;;;;;;5077592;28;20127;-80
2021/03/31 09:02:34;;;;;;;11.52;3.22;;;17.90;49.40;;;;;;5077222;28;20056;-81
2021/03/31 09:05:02;;;;;;;19.27;4.10;;;17.90;49.60;;;;;;5078864;28;20047;-81
2021/03/31 09:07:29;;;;;;;13.07;2.60;;;18.20;49.20;;;;;;5077956;28;20064;-81
2021/03/31 09:09:55;;;;;;;11.40;2.95;;;18.40;48.70;;;;;;5076332;28;20036;-81
2021/03/31 09:12:26;;;;;;;18.20;4.18;;;18.60;48.80;;;;;;5076831;28;20044;-81
2021/03/31 09:14:56;;;;;;;9.93;2.90;;;18.80;48.30;;;;;;5076574;28;20040;-81
2021/03/31 09:17:29;;;;;;;8.35;2.90;;;18.70;48.30;;;;;;5076669;28;20469;-81
2021/03/31 09:20:08;;;;;;;8.73;3.13;;;18.80;48.30;;;;;;5076774;28;20342;-81
2021/03/31 09:22:35;;;;;;;14.63;2.97;;;19.00;47.60;;;;;;5076073;28;20051;-81
2021/03/31 09:25:06;;;;;;;12.18;3.17;;;19.10;47.50;;;;;;5076367;28;20041;-80
2021/03/31 09:27:33;;;;;;;15.07;2.70;;;19.10;47.60;;;;;;5075900;28;20171;-80
2021/03/31 09:30:04;;;;;;;13.70;3.03;;;19.20;47.10;;;;;;5077146;28;20170;-80
2021/03/31 09:32:36;;;;;;;13.60;3.35;;;19.30;47.30;;;;;;5076573;28;20105;-80
2021/03/31 09:35:16;;;;;;;15.63;4.55;;;19.50;47.00;;;;;;5075271;28;20409;-81
2021/03/31 09:37:47;;;;;;;13.05;3.10;;;19.80;46.70;;;;;;5075627;28;20084;-81
2021/03/31 09:40:25;;;;;;;12.27;4.10;;;19.70;46.40;;;;;;5077023;28;20111;-80
2021/03/31 09:42:58;;;;;;;10.50;3.53;;;19.80;46.50;;;;;;5077086;28;20052;-80
2021/03/31 09:45:25;;;;;;;11.65;3.15;;;20.00;46.40;;;;;;5075269;28;20043;-80
2021/03/31 09:47:51;;;;;;;8.00;2.97;;;20.20;45.90;;;;;;5075600;28;20055;-80
2021/03/31 09:50:22;;;;;;;16.50;3.30;;;20.10;46.40;;;;;;5075080;28;20078;-81
2021/03/31 09:52:56;;;;;;;14.95;3.20;;;20.10;46.30;;;;;;5075125;28;20036;-80
2021/03/31 09:55:23;;;;;;;14.50;3.22;;;20.20;45.80;;;;;;5075051;28;20047;-80
2021/03/31 09:57:51;;;;;;;10.85;3.80;;;20.30;45.70;;;;;;5075386;28;20090;-80
2021/03/31 10:00:18;;;;;;;12.40;3.22;;;20.50;45.60;;;;;;5076773;28;20036;-81
2021/03/31 10:02:45;;;;;;;13.10;2.83;;;20.50;45.30;;;;;;5075201;28;20040;-81
2021/03/31 10:05:18;;;;;;;11.52;3.03;;;20.50;45.50;;;;;;5075291;28;20094;-81
2021/03/31 10:08:06;;;;;;;12.88;3.10;;;20.70;45.50;;;;;;5076885;28;20082;-81
2021/03/31 10:10:47;;;;;;;15.63;3.15;;;20.80;45.20;;;;;;5077070;28;20025;-81
2021/03/31 10:13:14;;;;;;;15.38;3.10;;;20.80;45.30;;;;;;5076529;28;20032;-81
2021/03/31 10:15:46;;;;;;;13.75;3.13;;;20.90;45.60;;;;;;5074344;28;20044;-81
2021/03/31 10:18:13;;;;;;;7.57;2.95;;;21.00;44.90;;;;;;5073991;28;20033;-81
2021/03/31 10:20:46;;;;;;;15.10;3.40;;;20.80;45.60;;;;;;5076125;28;20124;-81
2021/03/31 10:23:44;;;;;;;10.95;3.42;;;21.00;45.60;;;;;;5074609;28;20075;-81
2021/03/31 10:26:33;;;;;;;11.20;3.05;;;21.10;44.80;;;;;;5074233;28;20102;-81
2021/03/31 10:29:20;;;;;;;8.45;3.45;;;21.40;44.90;;;;;;5076481;28;20066;-81
2021/03/31 10:31:47;;;;;;;12.02;3.20;;;21.70;44.00;;;;;;5073847;28;20077;-81
2021/03/31 10:34:14;;;;;;;12.57;3.58;;;21.90;43.70;;;;;;5074264;28;20059;-81
2021/03/31 10:39:43;;;;;;;16.38;7.10;;;21.90;43.90;;;;;;5075414;28;20028;-81
2021/03/31 10:48:08;;;;;;;8.25;2.80;;;21.80;44.20;;;;;;5075608;28;20086;-81
2021/03/31 10:53:42;;;;;;;15.82;2.85;;;22.10;43.20;;;;;;5071596;28;20512;-81
2021/03/31 10:56:08;;;;;;;10.55;2.90;;;21.90;43.80;;;;;;5074200;28;20040;-81
2021/03/31 10:58:34;;;;;;;8.00;3.10;;;22.00;44.10;;;;;;5074193;28;20048;-81
2021/03/31 11:01:00;;;;;;;12.07;3.00;;;22.00;44.50;;;;;;5074431;28;20423;-83
2021/03/31 11:03:27;;;;;;;10.23;2.78;;;22.20;44.40;;;;;;5072999;28;20044;-81
2021/03/31 11:05:54;;;;;;;9.25;3.33;;;22.30;44.10;;;;;;5074382;28;20059;-79
2021/03/31 11:08:21;;;;;;;7.93;2.50;;;22.40;44.00;;;;;;5075373;28;20505;-79
2021/03/31 11:10:47;;;;;;;9.32;3.15;;;22.20;44.50;;;;;;5075237;28;20060;-79
2021/03/31 11:13:13;;;;;;;16.70;3.47;;;22.20;44.40;;;;;;5075763;28;20554;-79
2021/03/31 11:15:39;;;;;;;12.50;6.40;;;22.30;44.30;;;;;;5073841;28;20036;-79
2021/03/31 11:28:17;;;;;;;12.85;3.75;;;22.70;44.10;;;;;;5075045;28;20028;-79
2021/03/31 11:30:43;;;;;;;12.07;3.47;;;22.90;43.70;;;;;;5074702;28;20469;-79
2021/03/31 11:33:10;;;;;;;13.43;3.08;;;22.80;43.60;;;;;;5073533;28;20183;-79
2021/03/31 11:35:36;;;;;;;10.93;3.13;;;22.90;43.30;;;;;;5074691;28;20041;-79
2021/03/31 11:38:02;;;;;;;13.02;3.80;;;23.10;43.10;;;;;;5074438;28;20044;-79
2021/03/31 11:40:29;;;;;;;9.45;2.80;;;23.30;42.30;;;;;;5074430;28;20036;-79
2021/03/31 11:42:54;;;;;;;10.10;2.88;;;23.30;42.00;;;;;;5073122;28;20040;-79
2021/03/31 11:45:20;;;;;;;9.18;3.13;;;23.50;42.10;;;;;;5073602;28;20510;-81
2021/03/31 11:47:46;;;;;;;14.85;2.75;;;23.40;42.60;;;;;;5073321;28;20032;-80
2021/03/31 11:50:12;;;;;;;11.55;3.03;;;23.60;41.80;;;;;;5074829;28;20047;-81
2021/03/31 11:52:38;;;;;;;10.98;2.92;;;23.80;41.70;;;;;;5073052;28;20139;-80
2021/03/31 11:55:06;;;;;;;11.20;3.00;;;24.00;40.90;;;;;;5074119;28;20044;-80
2021/03/31 11:57:32;;;;;;;12.63;2.75;;;23.90;41.00;;;;;;5072872;28;20485;-81
2021/03/31 11:59:57;;;;;;;9.13;2.80;;;23.80;41.00;;;;;;5072860;28;20086;-80
2021/03/31 12:02:23;;;;;;;14.30;3.20;;;23.80;40.70;;;;;;5074441;28;20047;-80
2021/03/31 12:04:49;;;;;;;10.18;2.95;;;23.90;41.30;;;;;;5073224;28;20036;-80
2021/03/31 12:07:20;;;;;;;10.52;3.10;;;24.10;41.60;;;;;;5075080;28;20032;-80
2021/03/31 12:09:46;;;;;;;8.77;2.55;;;24.00;41.20;;;;;;5072512;28;20120;-80
2021/03/31 12:12:13;;;;;;;10.00;3.58;;;23.90;41.90;;;;;;5074674;28;20385;-81
2021/03/31 12:14:42;;;;;;;13.77;2.63;;;24.20;41.50;;;;;;5072521;28;20059;-81
2021/03/31 12:17:09;;;;;;;13.27;2.67;;;24.40;41.20;;;;;;5074404;28;20089;-81
2021/03/31 12:19:35;;;;;;;15.65;3.15;;;24.50;40.90;;;;;;5074488;28;20036;-81
2021/03/31 12:22:01;;;;;;;7.70;3.05;;;24.80;40.10;;;;;;5072694;28;20047;-81
2021/03/31 12:24:28;;;;;;;8.48;3.10;;;24.80;39.90;;;;;;5073903;28;20056;-81
2021/03/31 12:27:00;;;;;;;10.07;2.63;;;25.00;39.50;;;;;;5072739;28;20051;-81
2021/03/31 12:29:26;;;;;;;16.98;3.55;;;24.80;40.30;;;;;;5072724;28;20035;-80
2021/03/31 12:31:52;;;;;;;18.42;6.18;;;24.80;41.10;;;;;;5072662;28;20477;-81
2021/03/31 12:34:17;;;;;;;15.15;4.15;;;25.10;40.00;;;;;;5072913;28;20032;-80
2021/03/31 12:36:43;;;;;;;18.00;4.05;;;25.30;39.30;;;;;;5073864;28;20041;-81
2021/03/31 12:39:09;;;;;;;10.98;2.85;;;25.00;39.70;;;;;;5072237;28;20066;-81
2021/03/31 12:41:35;;;;;;;11.35;3.03;;;24.90;40.30;;;;;;5072585;28;20041;-81
2021/03/31 12:44:01;;;;;;;12.80;3.72;;;24.80;40.60;;;;;;5074202;28;20044;-81
2021/03/31 12:46:27;;;;;;;6.45;2.75;;;25.00;40.20;;;;;;5073930;28;20123;-81
2021/03/31 12:48:53;;;;;;;8.07;3.17;;;25.30;39.60;;;;;;5073153;28;20607;-81
2021/03/31 12:51:33;;;;;;;5.85;2.60;;;25.60;41.10;;;;;;5074157;28;20056;-81
2021/03/31 12:55:01;;;;;;;11.68;2.65;;;25.80;42.70;;;;;;5073752;28;20075;-81
2021/03/31 12:56:55;;;;;;;12.48;2.83;;;26.10;42.20;;;;;;5064258;28;20041;-81
2021/03/31 12:59:21;;;;;;;15.77;2.95;;;25.90;44.10;;;;;;5071993;28;20043;-81
2021/03/31 13:01:47;;;;;;;12.07;3.17;;;25.90;43.20;;;;;;5072481;28;20036;-82
2021/03/31 13:04:13;;;;;;;18.33;3.20;;;25.80;43.80;;;;;;5074102;28;20113;-82
2021/03/31 13:06:40;;;;;;;21.25;4.30;;;25.80;44.60;;;;;;5073683;28;20025;-82
2021/03/31 13:09:06;;;;;;;12.50;3.08;;;25.70;44.70;;;;;;5072194;28;20123;-82
2021/03/31 13:11:33;;;;;;;12.32;2.90;;;25.60;44.50;;;;;;5072688;28;20032;-81
2021/03/31 13:34:55;;;;;;;8.10;2.90;;;24.70;45.70;;;;;;5077102;28;20029;-81
2021/03/31 13:37:33;;;;;;;12.77;3.05;;;24.40;47.10;;;;;;5077425;28;20033;-81
2021/03/31 13:40:02;;;;;;;14.55;3.40;;;24.20;47.50;;;;;;5076700;28;20044;-81
2021/03/31 13:42:27;;;;;;;12.52;3.20;;;24.00;46.40;;;;;;5077186;28;20120;-81